HAZ2813 ZSHC-ZBAD
Flight info
| Callsign | HAZ2813 |
|---|---|
| Flight time | 1h 50m |
| Altitude | 34100 |
| Route | NIVIK5E NIVIK W135 DOGVI A470 DPX A593 DALIM W157 AVBOX AVBOX9M |
| Aircraft | B738/M-SDE2E3FGHIRWXY/LB1 |
Departure
| Time | 2026-04-24 13:04 |
|---|---|
| Airport | Hangzhou Xiaoshan International Airport (ZSHC) |
Arrival
| Time | 2026-04-24 14:54 |
|---|---|
| Airport | Beijing Daxing International Airport (ZBAD) |
| Time | Latitude | Longitude | Altitude | Speed | Heading |
|---|---|---|---|---|---|
| 2026-04-24 12:50 | 30.23970 | 120.42518 | 31 ft | 0 kts | 243° |
| 2026-04-24 12:56 | 30.23973 | 120.42523 | 31 ft | 4 kts | 245° |
| 2026-04-24 12:56 | 30.23979 | 120.42552 | 29 ft | 4 kts | 277° |
| 2026-04-24 12:56 | 30.23971 | 120.42580 | 30 ft | 4 kts | 309° |
| 2026-04-24 12:56 | 30.23954 | 120.42598 | 29 ft | 1 kts | 333° |
| 2026-04-24 12:59 | 30.23955 | 120.42597 | 28 ft | 1 kts | 333° |
| 2026-04-24 12:59 | 30.23982 | 120.42581 | 29 ft | 8 kts | 332° |
| 2026-04-24 12:59 | 30.24056 | 120.42538 | 31 ft | 15 kts | 332° |
| 2026-04-24 13:00 | 30.24168 | 120.42483 | 30 ft | 19 kts | 343° |
| 2026-04-24 13:00 | 30.24274 | 120.42429 | 31 ft | 15 kts | 329° |
| 2026-04-24 13:00 | 30.24288 | 120.42323 | 30 ft | 16 kts | 246° |
| 2026-04-24 13:00 | 30.24234 | 120.42205 | 31 ft | 17 kts | 241° |
| 2026-04-24 13:01 | 30.24181 | 120.42073 | 31 ft | 19 kts | 245° |
| 2026-04-24 13:01 | 30.24115 | 120.41934 | 31 ft | 21 kts | 243° |
| 2026-04-24 13:01 | 30.24049 | 120.41780 | 31 ft | 22 kts | 240° |
| 2026-04-24 13:01 | 30.23976 | 120.41617 | 31 ft | 24 kts | 244° |
| 2026-04-24 13:02 | 30.23896 | 120.41445 | 31 ft | 25 kts | 244° |
| 2026-04-24 13:02 | 30.23820 | 120.41260 | 31 ft | 26 kts | 244° |
| 2026-04-24 13:02 | 30.23741 | 120.41085 | 31 ft | 22 kts | 245° |
| 2026-04-24 13:02 | 30.23715 | 120.40920 | 31 ft | 22 kts | 307° |
| 2026-04-24 13:03 | 30.23846 | 120.40898 | 33 ft | 22 kts | 50° |
| 2026-04-24 13:03 | 30.23957 | 120.41138 | 32 ft | 65 kts | 63° |
| 2026-04-24 13:03 | 30.24282 | 120.41877 | 32 ft | 138 kts | 62° |
| 2026-04-24 13:03 | 30.24792 | 120.43062 | 175 ft | 184 kts | 64° |
| 2026-04-24 13:04 | 30.25344 | 120.44319 | 1347 ft | 163 kts | 63° |
| 2026-04-24 13:04 | 30.25869 | 120.45481 | 2216 ft | 166 kts | 62° |
| 2026-04-24 13:04 | 30.26439 | 120.46751 | 2506 ft | 191 kts | 62° |
| 2026-04-24 13:04 | 30.27088 | 120.48201 | 2731 ft | 213 kts | 62° |
| 2026-04-24 13:05 | 30.27805 | 120.49811 | 2892 ft | 234 kts | 62° |
| 2026-04-24 13:05 | 30.28577 | 120.51548 | 3122 ft | 254 kts | 62° |
| 2026-04-24 13:05 | 30.29396 | 120.53397 | 3742 ft | 260 kts | 63° |
| 2026-04-24 13:05 | 30.30211 | 120.55237 | 4513 ft | 261 kts | 63° |
| 2026-04-24 13:06 | 30.31045 | 120.57121 | 5224 ft | 265 kts | 63° |
| 2026-04-24 13:06 | 30.31873 | 120.59048 | 5851 ft | 272 kts | 69° |
| 2026-04-24 13:06 | 30.32136 | 120.61221 | 6470 ft | 278 kts | 97° |
| 2026-04-24 13:06 | 30.31480 | 120.63321 | 7150 ft | 280 kts | 126° |
| 2026-04-24 13:07 | 30.30084 | 120.64880 | 7665 ft | 282 kts | 148° |
| 2026-04-24 13:07 | 30.28939 | 120.65599 | 7868 ft | 284 kts | 153° |
| 2026-04-24 13:07 | 30.26536 | 120.66958 | 7880 ft | 288 kts | 154° |
| 2026-04-24 13:07 | 30.25343 | 120.67635 | 7881 ft | 287 kts | 154° |
| 2026-04-24 13:08 | 30.22972 | 120.69001 | 7875 ft | 283 kts | 154° |
| 2026-04-24 13:08 | 30.21756 | 120.69520 | 7861 ft | 282 kts | 170° |
| 2026-04-24 13:08 | 30.19827 | 120.69449 | 7895 ft | 278 kts | 197° |
| 2026-04-24 13:09 | 30.16959 | 120.66672 | 7903 ft | 276 kts | 242° |
| 2026-04-24 13:09 | 30.16078 | 120.64693 | 7906 ft | 278 kts | 244° |
| 2026-04-24 13:09 | 30.15212 | 120.62684 | 7899 ft | 280 kts | 244° |
| 2026-04-24 13:09 | 30.14347 | 120.60665 | 7899 ft | 281 kts | 244° |
| 2026-04-24 13:10 | 30.13461 | 120.58642 | 7896 ft | 282 kts | 243° |
| 2026-04-24 13:10 | 30.12557 | 120.56594 | 7900 ft | 283 kts | 243° |
| 2026-04-24 13:10 | 30.11662 | 120.54572 | 7897 ft | 283 kts | 243° |
| 2026-04-24 13:10 | 30.10780 | 120.52581 | 7896 ft | 282 kts | 243° |
| 2026-04-24 13:11 | 30.09886 | 120.50564 | 7896 ft | 281 kts | 243° |
| 2026-04-24 13:11 | 30.08994 | 120.48554 | 7897 ft | 281 kts | 243° |
| 2026-04-24 13:11 | 30.08103 | 120.46550 | 7896 ft | 280 kts | 243° |
| 2026-04-24 13:11 | 30.07213 | 120.44549 | 7898 ft | 280 kts | 243° |
| 2026-04-24 13:12 | 30.06381 | 120.42532 | 7890 ft | 279 kts | 253° |
| 2026-04-24 13:12 | 30.06242 | 120.40323 | 7904 ft | 277 kts | 280° |
| 2026-04-24 13:12 | 30.06983 | 120.38295 | 7901 ft | 277 kts | 306° |
| 2026-04-24 13:12 | 30.08400 | 120.36798 | 7908 ft | 278 kts | 328° |
| 2026-04-24 13:13 | 30.10103 | 120.35737 | 7913 ft | 279 kts | 333° |
| 2026-04-24 13:13 | 30.11867 | 120.34724 | 7904 ft | 280 kts | 333° |
| 2026-04-24 13:13 | 30.13619 | 120.33726 | 7901 ft | 281 kts | 333° |
| 2026-04-24 13:13 | 30.15347 | 120.32733 | 7901 ft | 281 kts | 333° |
| 2026-04-24 13:14 | 30.17119 | 120.31705 | 7903 ft | 281 kts | 333° |
| 2026-04-24 13:14 | 30.18843 | 120.30697 | 7904 ft | 282 kts | 333° |
| 2026-04-24 13:14 | 30.20591 | 120.29670 | 7903 ft | 281 kts | 332° |
| 2026-04-24 13:14 | 30.22357 | 120.28630 | 7902 ft | 281 kts | 332° |
| 2026-04-24 13:15 | 30.24101 | 120.27601 | 7903 ft | 281 kts | 332° |
| 2026-04-24 13:15 | 30.25842 | 120.26573 | 7902 ft | 281 kts | 332° |
| 2026-04-24 13:15 | 30.27582 | 120.25544 | 7900 ft | 281 kts | 332° |
| 2026-04-24 13:15 | 30.29320 | 120.24515 | 7897 ft | 281 kts | 332° |
| 2026-04-24 13:16 | 30.31058 | 120.23485 | 7897 ft | 280 kts | 332° |
| 2026-04-24 13:16 | 30.32795 | 120.22458 | 7896 ft | 280 kts | 333° |
| 2026-04-24 13:16 | 30.34572 | 120.21518 | 7894 ft | 280 kts | 336° |
| 2026-04-24 13:16 | 30.36364 | 120.20631 | 7896 ft | 280 kts | 336° |
| 2026-04-24 13:17 | 30.38162 | 120.19747 | 7893 ft | 280 kts | 336° |
| 2026-04-24 13:17 | 30.39954 | 120.18862 | 7892 ft | 280 kts | 336° |
| 2026-04-24 13:17 | 30.41751 | 120.17967 | 7887 ft | 281 kts | 336° |
| 2026-04-24 13:17 | 30.43541 | 120.17072 | 7889 ft | 280 kts | 336° |
| 2026-04-24 13:18 | 30.45332 | 120.16173 | 7883 ft | 280 kts | 336° |
| 2026-04-24 13:18 | 30.47121 | 120.15274 | 7882 ft | 280 kts | 336° |
| 2026-04-24 13:18 | 30.48885 | 120.14302 | 7891 ft | 282 kts | 329° |
| 2026-04-24 13:18 | 30.50525 | 120.13013 | 8339 ft | 286 kts | 323° |
| 2026-04-24 13:19 | 30.52111 | 120.11637 | 9221 ft | 285 kts | 323° |
| 2026-04-24 13:19 | 30.53695 | 120.10251 | 10042 ft | 287 kts | 323° |
| 2026-04-24 13:19 | 30.55305 | 120.08850 | 10455 ft | 304 kts | 323° |
| 2026-04-24 13:19 | 30.57070 | 120.07330 | 10623 ft | 327 kts | 323° |
| 2026-04-24 13:20 | 30.58965 | 120.05709 | 10792 ft | 349 kts | 323° |
| 2026-04-24 13:20 | 30.60968 | 120.04006 | 11153 ft | 362 kts | 323° |
| 2026-04-24 13:20 | 30.63019 | 120.02268 | 11784 ft | 366 kts | 323° |
| 2026-04-24 13:20 | 30.65086 | 120.00519 | 12507 ft | 368 kts | 322° |
| 2026-04-24 13:21 | 30.67163 | 119.98760 | 13209 ft | 371 kts | 322° |
| 2026-04-24 13:21 | 30.69263 | 119.96981 | 13913 ft | 375 kts | 322° |
| 2026-04-24 13:21 | 30.71375 | 119.95192 | 14573 ft | 378 kts | 322° |
| 2026-04-24 13:21 | 30.73503 | 119.93388 | 15296 ft | 379 kts | 321° |
| 2026-04-24 13:22 | 30.75637 | 119.91578 | 16027 ft | 380 kts | 321° |
| 2026-04-24 13:22 | 30.77776 | 119.89756 | 16699 ft | 383 kts | 321° |
| 2026-04-24 13:22 | 30.79929 | 119.87908 | 17370 ft | 386 kts | 320° |
| 2026-04-24 13:22 | 30.82091 | 119.86048 | 18028 ft | 388 kts | 320° |
| 2026-04-24 13:23 | 30.84273 | 119.84169 | 18619 ft | 391 kts | 320° |
| 2026-04-24 13:23 | 30.86473 | 119.82275 | 19166 ft | 395 kts | 320° |
| 2026-04-24 13:23 | 30.88690 | 119.80365 | 19710 ft | 398 kts | 320° |
| 2026-04-24 13:23 | 30.90924 | 119.78441 | 20255 ft | 401 kts | 320° |
| 2026-04-24 13:24 | 30.93175 | 119.76502 | 20802 ft | 404 kts | 319° |
| 2026-04-24 13:24 | 30.95440 | 119.74549 | 21318 ft | 407 kts | 319° |
| 2026-04-24 13:24 | 30.97727 | 119.72577 | 21820 ft | 411 kts | 319° |
| 2026-04-24 13:24 | 31.00032 | 119.70586 | 22309 ft | 414 kts | 319° |
| 2026-04-24 13:25 | 31.02358 | 119.68578 | 22802 ft | 417 kts | 319° |
| 2026-04-24 13:25 | 31.04697 | 119.66557 | 23294 ft | 420 kts | 319° |
| 2026-04-24 13:25 | 31.07056 | 119.64519 | 23761 ft | 423 kts | 319° |
| 2026-04-24 13:25 | 31.09393 | 119.62497 | 24149 ft | 425 kts | 319° |
| 2026-04-24 13:26 | 31.11808 | 119.60407 | 24562 ft | 428 kts | 319° |
| 2026-04-24 13:26 | 31.14171 | 119.58360 | 24950 ft | 430 kts | 318° |
| 2026-04-24 13:26 | 31.16615 | 119.56243 | 25337 ft | 432 kts | 318° |
| 2026-04-24 13:26 | 31.19035 | 119.54144 | 25721 ft | 434 kts | 318° |
| 2026-04-24 13:27 | 31.21434 | 119.52061 | 26108 ft | 436 kts | 317° |
| 2026-04-24 13:27 | 31.23902 | 119.49917 | 26473 ft | 438 kts | 317° |
| 2026-04-24 13:27 | 31.26354 | 119.47785 | 26818 ft | 440 kts | 317° |
| 2026-04-24 13:27 | 31.28781 | 119.45673 | 27164 ft | 442 kts | 317° |
| 2026-04-24 13:28 | 31.31251 | 119.43523 | 27509 ft | 443 kts | 317° |
| 2026-04-24 13:28 | 31.33731 | 119.41363 | 27849 ft | 445 kts | 317° |
| 2026-04-24 13:28 | 31.36220 | 119.39194 | 28188 ft | 447 kts | 316° |
| 2026-04-24 13:28 | 31.38721 | 119.37014 | 28517 ft | 449 kts | 316° |
| 2026-04-24 13:29 | 31.41226 | 119.34828 | 28858 ft | 450 kts | 316° |
| 2026-04-24 13:29 | 31.43731 | 119.32642 | 29306 ft | 449 kts | 316° |
| 2026-04-24 13:29 | 31.46229 | 119.30462 | 29832 ft | 446 kts | 316° |
| 2026-04-24 13:29 | 31.48706 | 119.28298 | 30306 ft | 443 kts | 316° |
| 2026-04-24 13:30 | 31.51176 | 119.26136 | 30683 ft | 442 kts | 315° |
| 2026-04-24 13:30 | 31.53641 | 119.23978 | 31019 ft | 442 kts | 316° |
| 2026-04-24 13:30 | 31.56108 | 119.21834 | 31390 ft | 441 kts | 316° |
| 2026-04-24 13:30 | 31.58559 | 119.19682 | 31767 ft | 439 kts | 315° |
| 2026-04-24 13:31 | 31.60992 | 119.17522 | 32140 ft | 438 kts | 315° |
| 2026-04-24 13:31 | 31.63422 | 119.15360 | 32487 ft | 437 kts | 314° |
| 2026-04-24 13:31 | 31.65796 | 119.13157 | 32860 ft | 433 kts | 311° |
| 2026-04-24 13:31 | 31.68057 | 119.10848 | 33218 ft | 430 kts | 310° |
| 2026-04-24 13:32 | 31.70286 | 119.08517 | 33530 ft | 430 kts | 310° |
| 2026-04-24 13:32 | 31.72528 | 119.06191 | 33866 ft | 429 kts | 310° |
| 2026-04-24 13:32 | 31.74772 | 119.03887 | 34182 ft | 429 kts | 310° |
| 2026-04-24 13:32 | 31.77033 | 119.01575 | 34189 ft | 432 kts | 310° |
| 2026-04-24 13:33 | 31.81691 | 118.97111 | 34198 ft | 437 kts | 317° |
| 2026-04-24 13:33 | 31.87255 | 118.93935 | 34220 ft | 450 kts | 329° |
| 2026-04-24 13:34 | 31.93113 | 118.91365 | 34193 ft | 449 kts | 330° |
| 2026-04-24 13:34 | 31.98932 | 118.88812 | 34199 ft | 448 kts | 329° |
| 2026-04-24 13:35 | 32.04751 | 118.86210 | 34191 ft | 447 kts | 329° |
| 2026-04-24 13:35 | 32.10566 | 118.83587 | 34198 ft | 448 kts | 329° |
| 2026-04-24 13:36 | 32.16394 | 118.80951 | 34189 ft | 449 kts | 329° |
| 2026-04-24 13:36 | 32.22222 | 118.78312 | 34190 ft | 449 kts | 329° |
| 2026-04-24 13:37 | 32.28066 | 118.75665 | 34197 ft | 450 kts | 329° |
| 2026-04-24 13:37 | 32.33933 | 118.73003 | 34194 ft | 451 kts | 329° |
| 2026-04-24 13:38 | 32.39799 | 118.70339 | 34199 ft | 452 kts | 330° |
| 2026-04-24 13:38 | 32.45682 | 118.67663 | 34192 ft | 453 kts | 330° |
| 2026-04-24 13:39 | 32.51568 | 118.64982 | 34190 ft | 453 kts | 330° |
| 2026-04-24 13:39 | 32.57451 | 118.62299 | 34207 ft | 454 kts | 330° |
| 2026-04-24 13:40 | 32.63344 | 118.59608 | 34190 ft | 454 kts | 330° |
| 2026-04-24 13:40 | 32.69276 | 118.56999 | 34191 ft | 457 kts | 333° |
| 2026-04-24 13:41 | 32.75392 | 118.54811 | 34198 ft | 460 kts | 335° |
| 2026-04-24 13:41 | 32.81540 | 118.52709 | 34196 ft | 459 kts | 335° |
| 2026-04-24 13:42 | 32.87669 | 118.50565 | 34198 ft | 459 kts | 335° |
| 2026-04-24 13:42 | 32.93787 | 118.48389 | 34197 ft | 458 kts | 335° |
| 2026-04-24 13:43 | 32.99893 | 118.46209 | 34200 ft | 458 kts | 335° |
| 2026-04-24 13:43 | 33.05997 | 118.44027 | 34198 ft | 458 kts | 335° |
| 2026-04-24 13:44 | 33.12101 | 118.41845 | 34194 ft | 457 kts | 336° |
| 2026-04-24 13:44 | 33.18192 | 118.39664 | 34198 ft | 456 kts | 336° |
| 2026-04-24 13:45 | 33.24272 | 118.37482 | 34198 ft | 456 kts | 336° |
| 2026-04-24 13:45 | 33.30341 | 118.35292 | 34200 ft | 455 kts | 336° |
| 2026-04-24 13:46 | 33.36398 | 118.33103 | 34197 ft | 455 kts | 336° |
| 2026-04-24 13:46 | 33.42412 | 118.30929 | 34200 ft | 454 kts | 336° |
| 2026-04-24 13:47 | 33.48461 | 118.28739 | 34201 ft | 454 kts | 336° |
| 2026-04-24 13:47 | 33.54503 | 118.26549 | 34201 ft | 453 kts | 337° |
| 2026-04-24 13:48 | 33.60542 | 118.24356 | 34202 ft | 453 kts | 337° |
| 2026-04-24 13:48 | 33.66572 | 118.22165 | 34203 ft | 453 kts | 337° |
| 2026-04-24 13:49 | 33.72598 | 118.19971 | 34205 ft | 452 kts | 337° |
| 2026-04-24 13:49 | 33.78621 | 118.17776 | 34201 ft | 452 kts | 338° |
| 2026-04-24 13:50 | 33.83621 | 118.15951 | 34203 ft | 452 kts | 338° |
| 2026-04-24 13:50 | 33.89637 | 118.13754 | 34202 ft | 452 kts | 338° |
| 2026-04-24 13:51 | 33.95649 | 118.11557 | 34202 ft | 452 kts | 338° |
| 2026-04-24 13:51 | 34.01664 | 118.09355 | 34200 ft | 451 kts | 338° |
| 2026-04-24 13:52 | 34.07680 | 118.07157 | 34204 ft | 451 kts | 339° |
| 2026-04-24 13:52 | 34.13692 | 118.04962 | 34206 ft | 451 kts | 339° |
| 2026-04-24 13:53 | 34.19696 | 118.02767 | 34197 ft | 451 kts | 339° |
| 2026-04-24 13:53 | 34.25712 | 118.00564 | 34200 ft | 451 kts | 339° |
| 2026-04-24 13:54 | 34.31718 | 117.98384 | 34199 ft | 451 kts | 340° |
| 2026-04-24 13:54 | 34.37749 | 117.96243 | 34201 ft | 451 kts | 340° |
| 2026-04-24 13:55 | 34.43779 | 117.94102 | 34199 ft | 451 kts | 340° |
| 2026-04-24 13:55 | 34.49801 | 117.91955 | 34205 ft | 451 kts | 340° |
| 2026-04-24 13:56 | 34.55821 | 117.89802 | 34208 ft | 451 kts | 340° |
| 2026-04-24 13:56 | 34.61806 | 117.87659 | 34209 ft | 451 kts | 340° |
| 2026-04-24 13:57 | 34.67818 | 117.85503 | 34206 ft | 451 kts | 340° |
| 2026-04-24 13:57 | 34.73828 | 117.83345 | 34205 ft | 450 kts | 340° |
| 2026-04-24 13:58 | 34.79839 | 117.81184 | 34202 ft | 450 kts | 340° |
| 2026-04-24 13:58 | 34.85849 | 117.79037 | 34205 ft | 450 kts | 340° |
| 2026-04-24 13:59 | 34.91852 | 117.76862 | 34200 ft | 450 kts | 340° |
| 2026-04-24 13:59 | 34.97854 | 117.74670 | 34203 ft | 450 kts | 340° |
| 2026-04-24 14:00 | 35.03851 | 117.72483 | 34203 ft | 450 kts | 340° |
| 2026-04-24 14:00 | 35.09846 | 117.70293 | 34199 ft | 450 kts | 340° |
| 2026-04-24 14:01 | 35.15836 | 117.68091 | 34199 ft | 449 kts | 340° |
| 2026-04-24 14:01 | 35.21822 | 117.65888 | 34198 ft | 449 kts | 340° |
| 2026-04-24 14:02 | 35.27811 | 117.63682 | 34202 ft | 449 kts | 340° |
| 2026-04-24 14:02 | 35.33791 | 117.61477 | 34199 ft | 449 kts | 340° |
| 2026-04-24 14:03 | 35.39771 | 117.59269 | 34197 ft | 449 kts | 340° |
| 2026-04-24 14:03 | 35.45748 | 117.57058 | 34197 ft | 448 kts | 340° |
| 2026-04-24 14:04 | 35.51722 | 117.54845 | 34199 ft | 449 kts | 340° |
| 2026-04-24 14:04 | 35.57658 | 117.52642 | 34189 ft | 448 kts | 340° |
| 2026-04-24 14:05 | 35.63626 | 117.50425 | 34187 ft | 448 kts | 340° |
| 2026-04-24 14:05 | 35.69606 | 117.48199 | 34187 ft | 448 kts | 340° |
| 2026-04-24 14:06 | 35.75578 | 117.45973 | 34185 ft | 448 kts | 340° |
| 2026-04-24 14:06 | 35.81544 | 117.43746 | 34187 ft | 448 kts | 340° |
| 2026-04-24 14:07 | 35.87510 | 117.41516 | 34183 ft | 448 kts | 340° |
| 2026-04-24 14:07 | 35.93476 | 117.39282 | 34181 ft | 448 kts | 340° |
| 2026-04-24 14:08 | 35.99439 | 117.37046 | 34180 ft | 448 kts | 341° |
| 2026-04-24 14:08 | 36.05406 | 117.34824 | 34190 ft | 448 kts | 341° |
| 2026-04-24 14:09 | 36.11374 | 117.32617 | 34182 ft | 447 kts | 341° |
| 2026-04-24 14:09 | 36.17333 | 117.30410 | 34176 ft | 447 kts | 341° |
| 2026-04-24 14:10 | 36.23290 | 117.28197 | 34179 ft | 446 kts | 341° |
| 2026-04-24 14:10 | 36.29236 | 117.25984 | 34174 ft | 446 kts | 341° |
| 2026-04-24 14:11 | 36.35177 | 117.23771 | 34171 ft | 445 kts | 341° |
| 2026-04-24 14:12 | 36.43976 | 117.20299 | 34158 ft | 443 kts | 336° |
| 2026-04-24 14:12 | 36.49655 | 117.17350 | 34154 ft | 442 kts | 335° |
| 2026-04-24 14:13 | 36.55297 | 117.14326 | 34151 ft | 441 kts | 335° |
| 2026-04-24 14:13 | 36.60948 | 117.11342 | 34139 ft | 441 kts | 335° |
| 2026-04-24 14:14 | 36.66601 | 117.08386 | 34136 ft | 440 kts | 335° |
| 2026-04-24 14:14 | 36.75059 | 117.03968 | 34127 ft | 438 kts | 335° |
| 2026-04-24 14:15 | 36.80680 | 117.01025 | 34128 ft | 437 kts | 335° |
| 2026-04-24 14:15 | 36.86285 | 116.98085 | 34121 ft | 437 kts | 335° |
| 2026-04-24 14:16 | 36.91882 | 116.95144 | 34117 ft | 436 kts | 335° |
| 2026-04-24 14:17 | 37.00257 | 116.90735 | 34115 ft | 434 kts | 335° |
| 2026-04-24 14:17 | 37.08608 | 116.86328 | 34111 ft | 434 kts | 335° |
| 2026-04-24 14:18 | 37.14142 | 116.83402 | 34110 ft | 433 kts | 334° |
| 2026-04-24 14:18 | 37.19697 | 116.80461 | 34108 ft | 433 kts | 334° |
| 2026-04-24 14:19 | 37.25364 | 116.77855 | 34114 ft | 435 kts | 340° |
| 2026-04-24 14:19 | 37.31184 | 116.75716 | 34104 ft | 436 kts | 341° |
| 2026-04-24 14:20 | 37.37013 | 116.73591 | 34103 ft | 437 kts | 341° |
| 2026-04-24 14:20 | 37.42845 | 116.71412 | 34097 ft | 437 kts | 340° |
| 2026-04-24 14:21 | 37.48676 | 116.69205 | 34097 ft | 438 kts | 340° |
| 2026-04-24 14:21 | 37.54526 | 116.66982 | 34092 ft | 439 kts | 340° |
| 2026-04-24 14:22 | 37.60383 | 116.64754 | 34090 ft | 440 kts | 341° |
| 2026-04-24 14:23 | 37.69183 | 116.61402 | 34091 ft | 441 kts | 341° |
| 2026-04-24 14:23 | 37.75064 | 116.59157 | 34090 ft | 441 kts | 341° |
| 2026-04-24 14:24 | 37.80941 | 116.56910 | 34088 ft | 442 kts | 341° |
| 2026-04-24 14:24 | 37.86830 | 116.54655 | 34021 ft | 443 kts | 341° |
| 2026-04-24 14:24 | 37.89805 | 116.53514 | 33335 ft | 448 kts | 341° |
| 2026-04-24 14:25 | 37.91772 | 116.52760 | 32875 ft | 445 kts | 341° |
| 2026-04-24 14:25 | 37.95713 | 116.51188 | 31881 ft | 442 kts | 337° |
| 2026-04-24 14:25 | 37.98501 | 116.49568 | 31143 ft | 440 kts | 329° |
| 2026-04-24 14:25 | 38.01043 | 116.47446 | 30400 ft | 438 kts | 323° |
| 2026-04-24 14:26 | 38.03463 | 116.45172 | 29512 ft | 438 kts | 322° |
| 2026-04-24 14:26 | 38.05907 | 116.42864 | 28664 ft | 437 kts | 323° |
| 2026-04-24 14:26 | 38.08337 | 116.40606 | 28060 ft | 430 kts | 323° |
| 2026-04-24 14:26 | 38.10749 | 116.38393 | 27454 ft | 425 kts | 323° |
| 2026-04-24 14:27 | 38.13131 | 116.36212 | 26866 ft | 419 kts | 323° |
| 2026-04-24 14:27 | 38.15479 | 116.34047 | 26265 ft | 415 kts | 323° |
| 2026-04-24 14:27 | 38.17807 | 116.31894 | 25667 ft | 411 kts | 324° |
| 2026-04-24 14:27 | 38.20143 | 116.29732 | 25070 ft | 408 kts | 324° |
| 2026-04-24 14:28 | 38.22399 | 116.27646 | 24494 ft | 405 kts | 325° |
| 2026-04-24 14:28 | 38.24881 | 116.26022 | 23894 ft | 402 kts | 343° |
| 2026-04-24 14:28 | 38.27617 | 116.25422 | 23316 ft | 399 kts | 358° |
| 2026-04-24 14:28 | 38.30366 | 116.25785 | 22704 ft | 397 kts | 12° |
| 2026-04-24 14:29 | 38.33025 | 116.26658 | 22114 ft | 395 kts | 14° |
| 2026-04-24 14:29 | 38.35666 | 116.27608 | 21527 ft | 392 kts | 15° |
| 2026-04-24 14:29 | 38.38292 | 116.28565 | 20943 ft | 393 kts | 14° |
| 2026-04-24 14:29 | 38.40952 | 116.29521 | 20368 ft | 402 kts | 14° |
| 2026-04-24 14:30 | 38.42744 | 116.30156 | 19978 ft | 404 kts | 14° |
| 2026-04-24 14:30 | 38.46354 | 116.31418 | 19181 ft | 400 kts | 14° |
| 2026-04-24 14:30 | 38.49031 | 116.32345 | 18597 ft | 397 kts | 14° |
| 2026-04-24 14:30 | 38.51694 | 116.33265 | 17947 ft | 395 kts | 14° |
| 2026-04-24 14:31 | 38.54337 | 116.34178 | 17320 ft | 392 kts | 14° |
| 2026-04-24 14:31 | 38.56967 | 116.35086 | 16720 ft | 389 kts | 14° |
| 2026-04-24 14:31 | 38.59563 | 116.35984 | 16139 ft | 386 kts | 14° |
| 2026-04-24 14:31 | 38.62135 | 116.36874 | 15873 ft | 377 kts | 14° |
| 2026-04-24 14:32 | 38.64619 | 116.37806 | 15778 ft | 372 kts | 20° |
| 2026-04-24 14:32 | 38.66837 | 116.39429 | 15782 ft | 372 kts | 33° |
| 2026-04-24 14:32 | 38.68933 | 116.41338 | 15758 ft | 359 kts | 34° |
| 2026-04-24 14:32 | 38.70913 | 116.43184 | 15743 ft | 344 kts | 34° |
| 2026-04-24 14:33 | 38.72809 | 116.44950 | 15748 ft | 329 kts | 34° |
| 2026-04-24 14:33 | 38.74622 | 116.46626 | 15743 ft | 315 kts | 34° |
| 2026-04-24 14:33 | 38.76364 | 116.48226 | 15744 ft | 301 kts | 34° |
| 2026-04-24 14:33 | 38.78019 | 116.49739 | 15746 ft | 291 kts | 33° |
| 2026-04-24 14:34 | 38.79680 | 116.51251 | 15762 ft | 294 kts | 33° |
| 2026-04-24 14:34 | 38.80816 | 116.52283 | 15773 ft | 309 kts | 34° |
| 2026-04-24 14:34 | 38.83179 | 116.54430 | 15771 ft | 317 kts | 34° |
| 2026-04-24 14:34 | 38.84982 | 116.56070 | 15685 ft | 321 kts | 34° |
| 2026-04-24 14:35 | 38.86810 | 116.57734 | 15484 ft | 322 kts | 34° |
| 2026-04-24 14:35 | 38.88630 | 116.59392 | 15233 ft | 319 kts | 34° |
| 2026-04-24 14:35 | 38.90446 | 116.61047 | 14582 ft | 320 kts | 34° |
| 2026-04-24 14:35 | 38.91649 | 116.62145 | 14193 ft | 320 kts | 34° |
| 2026-04-24 14:36 | 38.93463 | 116.63800 | 13579 ft | 320 kts | 34° |
| 2026-04-24 14:36 | 38.95274 | 116.65454 | 12919 ft | 320 kts | 34° |
| 2026-04-24 14:36 | 38.97087 | 116.67110 | 12289 ft | 319 kts | 34° |
| 2026-04-24 14:36 | 38.98876 | 116.68745 | 11918 ft | 310 kts | 34° |
| 2026-04-24 14:37 | 39.00595 | 116.70317 | 11794 ft | 298 kts | 34° |
| 2026-04-24 14:37 | 39.02281 | 116.71852 | 11766 ft | 296 kts | 32° |
| 2026-04-24 14:37 | 39.04157 | 116.72855 | 11762 ft | 293 kts | 7° |
| 2026-04-24 14:37 | 39.06183 | 116.72881 | 11760 ft | 292 kts | 351° |
| 2026-04-24 14:38 | 39.08202 | 116.72547 | 11765 ft | 292 kts | 350° |
| 2026-04-24 14:38 | 39.10232 | 116.72203 | 11771 ft | 297 kts | 350° |
| 2026-04-24 14:38 | 39.12283 | 116.71874 | 11751 ft | 295 kts | 351° |
| 2026-04-24 14:38 | 39.14312 | 116.71558 | 11739 ft | 292 kts | 351° |
| 2026-04-24 14:39 | 39.16314 | 116.71252 | 11748 ft | 290 kts | 351° |
| 2026-04-24 14:39 | 39.18330 | 116.70945 | 11580 ft | 294 kts | 351° |
| 2026-04-24 14:39 | 39.20399 | 116.70631 | 10926 ft | 301 kts | 351° |
| 2026-04-24 14:39 | 39.22482 | 116.70316 | 10326 ft | 301 kts | 351° |
| 2026-04-24 14:40 | 39.24562 | 116.70002 | 9718 ft | 301 kts | 351° |
| 2026-04-24 14:40 | 39.26644 | 116.69686 | 9074 ft | 301 kts | 351° |
| 2026-04-24 14:40 | 39.28720 | 116.69363 | 8447 ft | 300 kts | 349° |
| 2026-04-24 14:40 | 39.30633 | 116.68441 | 7949 ft | 291 kts | 323° |
| 2026-04-24 14:41 | 39.32005 | 116.66617 | 7484 ft | 282 kts | 299° |
| 2026-04-24 14:41 | 39.32699 | 116.64291 | 7031 ft | 275 kts | 279° |
| 2026-04-24 14:41 | 39.32727 | 116.61861 | 6568 ft | 269 kts | 257° |
| 2026-04-24 14:41 | 39.31935 | 116.59727 | 6104 ft | 264 kts | 228° |
| 2026-04-24 14:42 | 39.30496 | 116.58325 | 5715 ft | 259 kts | 205° |
| 2026-04-24 14:42 | 39.28781 | 116.57746 | 5358 ft | 253 kts | 184° |
| 2026-04-24 14:42 | 39.27050 | 116.57853 | 5136 ft | 245 kts | 175° |
| 2026-04-24 14:42 | 39.25385 | 116.58130 | 4879 ft | 238 kts | 174° |
| 2026-04-24 14:43 | 39.23771 | 116.58417 | 4618 ft | 231 kts | 174° |
| 2026-04-24 14:43 | 39.22200 | 116.58683 | 4353 ft | 224 kts | 175° |
| 2026-04-24 14:43 | 39.20674 | 116.58929 | 4102 ft | 219 kts | 175° |
| 2026-04-24 14:43 | 39.19167 | 116.59166 | 3959 ft | 217 kts | 175° |
| 2026-04-24 14:44 | 39.17674 | 116.59397 | 3921 ft | 217 kts | 175° |
| 2026-04-24 14:44 | 39.16165 | 116.59628 | 3933 ft | 223 kts | 175° |
| 2026-04-24 14:44 | 39.14584 | 116.59835 | 3945 ft | 231 kts | 184° |
| 2026-04-24 14:44 | 39.13073 | 116.59260 | 3957 ft | 228 kts | 216° |
| 2026-04-24 14:45 | 39.12057 | 116.57743 | 3953 ft | 226 kts | 246° |
| 2026-04-24 14:45 | 39.11651 | 116.55786 | 3969 ft | 228 kts | 261° |
| 2026-04-24 14:45 | 39.11452 | 116.53750 | 3962 ft | 230 kts | 262° |
| 2026-04-24 14:45 | 39.11399 | 116.51697 | 3935 ft | 232 kts | 281° |
| 2026-04-24 14:46 | 39.12223 | 116.49945 | 3956 ft | 236 kts | 319° |
| 2026-04-24 14:46 | 39.13721 | 116.49082 | 3983 ft | 237 kts | 341° |
| 2026-04-24 14:46 | 39.15284 | 116.48501 | 3971 ft | 228 kts | 342° |
| 2026-04-24 14:46 | 39.16781 | 116.48051 | 3883 ft | 214 kts | 346° |
| 2026-04-24 14:47 | 39.18205 | 116.47744 | 3793 ft | 200 kts | 348° |
| 2026-04-24 14:47 | 39.19541 | 116.47507 | 3698 ft | 188 kts | 348° |
| 2026-04-24 14:47 | 39.20802 | 116.47299 | 3623 ft | 182 kts | 349° |
| 2026-04-24 14:47 | 39.22056 | 116.47096 | 3567 ft | 181 kts | 349° |
| 2026-04-24 14:48 | 39.23294 | 116.46899 | 3496 ft | 179 kts | 349° |
| 2026-04-24 14:48 | 39.24532 | 116.46703 | 3427 ft | 178 kts | 349° |
| 2026-04-24 14:48 | 39.25757 | 116.46509 | 3359 ft | 177 kts | 348° |
| 2026-04-24 14:48 | 39.26983 | 116.46315 | 3294 ft | 177 kts | 348° |
| 2026-04-24 14:49 | 39.28206 | 116.46122 | 3219 ft | 177 kts | 348° |
| 2026-04-24 14:49 | 39.29434 | 116.45927 | 3128 ft | 180 kts | 348° |
| 2026-04-24 14:49 | 39.30668 | 116.45732 | 3044 ft | 180 kts | 348° |
| 2026-04-24 14:49 | 39.31898 | 116.45539 | 2991 ft | 174 kts | 348° |
| 2026-04-24 14:50 | 39.33106 | 116.45348 | 2800 ft | 177 kts | 348° |
| 2026-04-24 14:50 | 39.34339 | 116.45152 | 2574 ft | 179 kts | 347° |
| 2026-04-24 14:50 | 39.35572 | 116.44958 | 2365 ft | 175 kts | 347° |
| 2026-04-24 14:50 | 39.36738 | 116.44776 | 2125 ft | 161 kts | 347° |
| 2026-04-24 14:51 | 39.37813 | 116.44606 | 1915 ft | 154 kts | 346° |
| 2026-04-24 14:51 | 39.38862 | 116.44441 | 1706 ft | 152 kts | 345° |
| 2026-04-24 14:51 | 39.39911 | 116.44271 | 1515 ft | 152 kts | 345° |
| 2026-04-24 14:51 | 39.40967 | 116.44100 | 1317 ft | 154 kts | 347° |
| 2026-04-24 14:52 | 39.42031 | 116.43927 | 1122 ft | 154 kts | 347° |
| 2026-04-24 14:52 | 39.43093 | 116.43747 | 918 ft | 153 kts | 348° |
| 2026-04-24 14:52 | 39.44145 | 116.43597 | 697 ft | 151 kts | 352° |
| 2026-04-24 14:52 | 39.45162 | 116.43456 | 522 ft | 146 kts | 351° |
| 2026-04-24 14:53 | 39.46178 | 116.43285 | 306 ft | 143 kts | 353° |
| 2026-04-24 14:53 | 39.47154 | 116.43137 | 156 ft | 139 kts | 353° |
| 2026-04-24 14:53 | 39.48101 | 116.42981 | 96 ft | 129 kts | 352° |
| 2026-04-24 14:53 | 39.48814 | 116.42876 | 96 ft | 69 kts | 352° |
| 2026-04-24 14:54 | 39.49114 | 116.42795 | 95 ft | 29 kts | 332° |
| 2026-04-24 14:54 | 39.49228 | 116.42702 | 92 ft | 19 kts | 322° |
| 2026-04-24 14:54 | 39.49295 | 116.42640 | 91 ft | 4 kts | 327° |
| 2026-04-24 14:54 | 39.49313 | 116.42625 | 89 ft | 1 kts | 328° |
| 2026-04-24 14:55 | 39.49317 | 116.42622 | 88 ft | 1 kts | 328° |
| 2026-04-24 14:55 | 39.49330 | 116.42612 | 88 ft | 0 kts | 329° |
| 2026-04-24 14:55 | 39.49337 | 116.42607 | 88 ft | 2 kts | 329° |
| 2026-04-24 14:55 | 39.49341 | 116.42603 | 91 ft | 1 kts | 330° |
| 2026-04-24 14:56 | 39.49354 | 116.42594 | 90 ft | 3 kts | 330° |
| 2026-04-24 14:56 | 39.49374 | 116.42578 | 88 ft | 4 kts | 327° |
| 2026-04-24 14:56 | 39.49399 | 116.42555 | 86 ft | 5 kts | 323° |
| 2026-04-24 14:56 | 39.49430 | 116.42526 | 89 ft | 6 kts | 326° |
| 2026-04-24 14:57 | 39.49465 | 116.42496 | 85 ft | 6 kts | 327° |
| 2026-04-24 14:57 | 39.49502 | 116.42467 | 85 ft | 6 kts | 329° |
| 2026-04-24 14:57 | 39.49540 | 116.42440 | 88 ft | 6 kts | 333° |
| 2026-04-24 14:57 | 39.49580 | 116.42421 | 88 ft | 6 kts | 347° |
| 2026-04-24 14:58 | 39.49620 | 116.42412 | 86 ft | 6 kts | 351° |
| 2026-04-24 14:58 | 39.49661 | 116.42406 | 85 ft | 6 kts | 354° |
| 2026-04-24 14:58 | 39.49701 | 116.42400 | 86 ft | 6 kts | 353° |
| 2026-04-24 14:58 | 39.49741 | 116.42394 | 87 ft | 6 kts | 353° |
| 2026-04-24 14:59 | 39.49779 | 116.42388 | 89 ft | 6 kts | 353° |
| 2026-04-24 14:59 | 39.49817 | 116.42381 | 87 ft | 5 kts | 352° |
| 2026-04-24 14:59 | 39.49855 | 116.42376 | 87 ft | 6 kts | 354° |
| 2026-04-24 14:59 | 39.49905 | 116.42368 | 84 ft | 10 kts | 353° |
| 2026-04-24 15:00 | 39.49991 | 116.42355 | 87 ft | 15 kts | 353° |
| 2026-04-24 15:00 | 39.50106 | 116.42336 | 86 ft | 18 kts | 352° |
| 2026-04-24 15:00 | 39.50235 | 116.42316 | 84 ft | 20 kts | 353° |
| 2026-04-24 15:00 | 39.50379 | 116.42293 | 86 ft | 22 kts | 353° |
| 2026-04-24 15:01 | 39.50535 | 116.42268 | 84 ft | 24 kts | 354° |
| 2026-04-24 15:01 | 39.50707 | 116.42241 | 86 ft | 26 kts | 352° |
| 2026-04-24 15:01 | 39.50824 | 116.42198 | 87 ft | 9 kts | 289° |
| 2026-04-24 15:01 | 39.50823 | 116.42113 | 86 ft | 10 kts | 265° |
| 2026-04-24 15:02 | 39.50814 | 116.42024 | 85 ft | 9 kts | 259° |
| 2026-04-24 15:02 | 39.50795 | 116.41959 | 86 ft | 8 kts | 231° |
| 2026-04-24 15:02 | 39.50778 | 116.41898 | 84 ft | 7 kts | 279° |
| 2026-04-24 15:02 | 39.50789 | 116.41864 | 84 ft | 0 kts | 295° |
| 2026-04-24 15:03 | 39.50791 | 116.41858 | 84 ft | 2 kts | 295° |
| 2026-04-24 15:03 | 39.50800 | 116.41833 | 85 ft | 0 kts | 295° |
| 2026-04-24 15:03 | 39.50800 | 116.41832 | 85 ft | 0 kts | 295° |